MDA weather

Ingenio Incauca Airport
Miranda, Cauca Department, Colombia

Public forecast

Using degrees Celsius for public forecast. Weather courtesy of forecast.io.

Closest aviation weather report (METAR) to Ingenio Incauca Airport

Closest report is Alfonso Bonilla Aragon International Airport, 16.7 nm (31.0 km) N. Retrieved 2020/04/04 00:00 UTC (2 minutes ago):

SKCL 040000Z 33008KT 9999 FEW030 SCT120 27/18 A2985 NOSIG

Closest aviation forecast (TAF) to Ingenio Incauca Airport

Closest forecast is Alfonso Bonilla Aragon International Airport, 16.7 nm (31.0 km) N. Retrieved 2020-04-04 00:48 UTC (0 seconds ago):

TAF TAF SKCL 032230Z 0400/0424 33012KT 9999 SCT030 BECMG 0402/0404 VRB02KT 7000 DZ SCT030TCU BECMG 0410/0411 5000 BR SCT030 BKN100 BECMG 0419/0420 36013KT TX33/0419Z TN20/0410Z